METAR KMRH 192356Z AUTO 02012G17KT 8SM -RA SCT006 BKN048 OVC080 06/06 A3008 RMK AO2 SLP185 P0006 60050 T00610056 10067 20044 55000 
SPECI KMRH 192340Z AUTO 01013KT 7SM -RA SCT008 BKN030 OVC090 07/06 A3006 RMK AO2 P0006 
SPECI KMRH 192332Z AUTO 02012KT 5SM RA BR BKN008 BKN013 OVC026 06/06 A3006 RMK AO2 P0005 
SPECI KMRH 192320Z AUTO 02012KT 5SM RA BR SCT008 BKN013 OVC026 07/06 A3007 RMK AO2 P0003 
SPECI KMRH 192310Z AUTO 01011KT 6SM RA BR BKN008 OVC017 07/06 A3008 RMK AO2 PRESRR P0001 
METAR KMRH 192256Z AUTO 03013KT 9SM -RA SCT008 BKN013 OVC090 07/06 A3004 RMK AO2 SLP174 P0008 T00670056 
SPECI KMRH 192232Z AUTO 03011G18KT 5SM RA BR SCT008 BKN024 OVC075 06/06 A3006 RMK AO2 P0006 
SPECI KMRH 192202Z AUTO 02012KT 3SM +RA BR BKN008 BKN017 OVC043 06/06 A3006 RMK AO2 P0003 
METAR KMRH 192156Z AUTO 01010KT 4SM +RA BR SCT008 BKN036 OVC070 06/06 A3008 RMK AO2 SLP185 P0007 T00610056 
SPECI KMRH 192133Z AUTO 03013KT 4SM -RA BR SCT006 BKN024 OVC070 06/05 A3003 RMK AO2 PRESFR P0004 
SPECI KMRH 192112Z AUTO 02014KT 2SM RA BR FEW006 OVC026 06/05 A3005 RMK AO2 PRESFR P0002 
METAR KMRH 192056Z AUTO 02012KT 1 3/4SM RA BR FEW006 OVC028 06/05 A3008 RMK AO2 SLP185 P0016 60029 T00560050 55018 
SPECI KMRH 192036Z AUTO 03012G18KT 2SM RA BR FEW006 OVC026 06/05 A3008 RMK AO2 P0011 
SPECI KMRH 192024Z AUTO 02012KT 1 3/4SM RA BR FEW006 OVC023 05/04 A3010 RMK AO2 P0007 
SPECI KMRH 192004Z AUTO 02010G17KT 2SM RA BR SCT006 BKN027 OVC050 05/04 A3007 RMK AO2 P0001 
METAR KMRH 191956Z AUTO 02013KT 3SM RA BR SCT006 BKN025 OVC050 05/04 A3006 RMK AO2 SLP180 P0007 T00500039 
SPECI KMRH 191948Z AUTO 02012KT 3SM -RA BR BKN008 OVC023 05/04 A3006 RMK AO2 P0006 
SPECI KMRH 191942Z AUTO 03014KT 2 1/2SM RA BR SCT008 BKN013 OVC023 05/04 A3006 RMK AO2 P0005 
SPECI KMRH 191933Z AUTO 03011G21KT 2 1/2SM -RA BR SCT008 BKN015 OVC025 04/04 A3006 RMK AO2 P0004 
SPECI KMRH 191905Z AUTO 03012KT 2SM -RA BR BKN008 OVC021 05/04 A3008 RMK AO2 PRESFR P0001 
METAR KMRH 191856Z AUTO 01011KT 1 3/4SM RA BR SCT008 BKN014 OVC021 05/04 A3011 RMK AO2 SLP196 P0006 T00500039 
SPECI KMRH 191844Z AUTO 02013G19KT 1 3/4SM RA BR SCT007 BKN013 OVC023 05/04 A3011 RMK AO2 P0004 
SPECI KMRH 191827Z AUTO 02011KT 2SM -RA BR BKN007 BKN011 OVC034 05/04 A3013 RMK AO2 CIG 004V008 P0003 
SPECI KMRH 191818Z AUTO 01011KT 2SM -RA BR SCT007 BKN011 OVC034 05/04 A3013 RMK AO2 P0002 
SPECI KMRH 191810Z AUTO 02013KT 3SM -RA BR SCT007 SCT017 OVC034 05/04 A3013 RMK AO2 P0001 
SPECI KMRH 191803Z AUTO 01010G18KT 3SM -RA BR SCT007 BKN017 OVC034 05/04 A3013 RMK AO2 P0001 
METAR KMRH 191756Z AUTO 01013G18KT 2 1/2SM -RA BR SCT007 BKN017 OVC034 05/04 A3013 RMK AO2 SLP203 P0009 60013 T00500039 10067 20050 56020 
SPECI KMRH 191736Z AUTO 01013KT 1 3/4SM RA BR FEW005 BKN020 OVC032 05/04 A3014 RMK AO2 P0007 
SPECI KMRH 191730Z AUTO 01011G20KT 2SM RA BR FEW010 SCT015 OVC032 05/04 A3014 RMK AO2 P0005 
SPECI KMRH 191724Z AUTO 01012KT 1 1/2SM RA BR BKN015 OVC032 05/04 A3014 RMK AO2 P0004 
SPECI KMRH 191717Z AUTO 01011KT 1 1/2SM RA BR FEW010 BKN013 OVC032 05/04 A3014 RMK AO2 P0003 
SPECI KMRH 191704Z AUTO 02010KT 2SM -RA BR SCT015 OVC032 06/04 A3015 RMK AO2 P0001 
METAR KMRH 191656Z AUTO 03007KT 3SM RA BR BKN034 OVC040 06/04 A3014 RMK AO2 SLP205 P0002 T00560039 
SPECI KMRH 191619Z AUTO 03008KT 4SM -RA BR SCT025 OVC034 06/04 A3015 RMK AO2 P0001 
SPECI KMRH 191607Z AUTO 03008KT 2SM -RA BR SCT023 OVC034 06/04 A3015 RMK AO2 P0001 
METAR KMRH 191556Z AUTO 01008KT 5SM RA OVC034 06/03 A3018 RMK AO2 RAE34B53 SLP220 P0001 T00610033 
METAR KMRH 191456Z AUTO 02007KT 5SM -RA BR OVC041 06/04 A3019 RMK AO2 SLP223 P0000 60001 T00610044 53003 
METAR KMRH 191356Z AUTO 03005KT 4SM -RA BR OVC039 06/04 A3018 RMK AO2 RAB05 SLP219 P0001 T00560044 
METAR KMRH 191256Z AUTO 01006KT 7SM OVC039 06/03 A3018 RMK AO2 RAE17 SLP219 P0000 T00560033 
METAR KMRH 191156Z AUTO 01005KT 10SM -RA OVC039 05/03 A3018 RMK AO2 SLP220 P0000 60000 T00500033 10083 20050 50002 
METAR KMRH 191056Z AUTO 02006KT 9SM -RA BKN039 OVC050 05/03 A3018 RMK AO2 SLP220 P0000 T00500033 
METAR KMRH 190956Z AUTO 01006KT 10SM -RA OVC037 06/03 A3018 RMK AO2 SLP220 P0000 T00560033 
METAR KMRH 190856Z AUTO 01005KT 8SM -RA FEW047 SCT060 OVC075 06/04 A3017 RMK AO2 SLP217 P0000 60000 T00610044 50007 
METAR KMRH 190756Z AUTO 32007KT 10SM -RA SCT040 OVC055 07/01 A3018 RMK AO2 SLP219 P0000 T00720011 
METAR KMRH 190656Z AUTO 03004KT 10SM -RA BKN050 BKN065 OVC090 07/03 A3016 RMK AO2 RAB07 SLP213 P0000 T00720033 
METAR KMRH 190556Z AUTO 34004KT 10SM OVC090 07/04 A3015 RMK AO2 RAB0459E18 SLP210 P0000 60000 T00720044 10089 20072 55018 
METAR KMRH 190456Z AUTO 00000KT 10SM SCT065 OVC100 08/04 A3013 RMK AO2 RAE0359 SLP203 P0000 T00830039 401110033 
METAR KMRH 190356Z AUTO 29005KT 10SM -RA SCT075 OVC100 08/04 A3018 RMK AO2 SLP219 P0000 T00780039 
METAR KMRH 190256Z AUTO 29006KT 10SM -RA BKN075 OVC100 08/03 A3020 RMK AO2 SLP228 P0000 60000 T00830033 51010 
METAR KMRH 190156Z AUTO 34009KT 10SM -RA BKN095 09/03 A3020 RMK AO2 RAB53 SLP226 P0000 T00890033 
METAR KMRH 190056Z AUTO 00000KT 10SM BKN110 08/04 A3020 RMK AO2 SLP228 T00830044 
METAR KMRH 182356Z AUTO 00000KT 10SM BKN110 08/04 A3017 RMK AO2 SLP217 T00780044 10111 20078 58006 
METAR KMRH 182256Z AUTO 03003KT 10SM CLR 08/03 A3018 RMK AO2 SLP221 T00830033 
METAR KMRH 182156Z AUTO 02003KT 10SM CLR 08/03 A3018 RMK AO2 SLP221 T00830033 
METAR KMRH 182056Z AUTO 03004KT 10SM CLR 09/03 A3019 RMK AO2 SLP223 T00890028 55001 
METAR KMRH 182056Z AUTO 03004KT 10SM CLR 09/03 A3019 RMK AO2 SLP223 T00890028 55001 
METAR KMRH 181956Z AUTO 03006KT 10SM CLR 10/03 A3019 RMK AO2 SLP222 T01000033 
METAR KMRH 181856Z AUTO 05006KT 10SM CLR 10/03 A3017 RMK AO2 SLP218 T01000028 
METAR KMRH 181756Z AUTO 36006KT 10SM CLR 11/03 A3019 RMK AO2 SLP224 T01060028 10111 20033 56022 
METAR KMRH 181656Z AUTO 04010KT 10SM CLR 11/03 A3021 RMK AO2 SLP230 T01060028 
METAR KMRH 181556Z AUTO 03012KT 10SM CLR 09/03 A3023 RMK AO2 SLP238 T00940028 
METAR KMRH 181456Z AUTO 02011KT 10SM CLR 08/02 A3026 RMK AO2 SLP246 T00830022 51016 
METAR KMRH 181356Z AUTO 36010KT 10SM CLR 07/01 A3025 RMK AO2 SLP244 T00670011 
METAR KMRH 181256Z AUTO 35007KT 10SM CLR 04/00 A3023 RMK AO2 SLP238 T00440000 
METAR KMRH 181156Z AUTO 35006KT 10SM CLR 03/M01 A3021 RMK AO2 PRESRR SLP230 70001 T00331006 10083 20033 53019 
METAR KMRH 181056Z AUTO 35007KT 10SM CLR 04/00 A3018 RMK AO2 SLP221 T00390000 
METAR KMRH 180956Z AUTO 36006KT 10SM CLR 04/00 A3017 RMK AO2 SLP217 T00440000 
METAR KMRH 180856Z AUTO 36010KT 10SM CLR 05/01 A3015 RMK AO2 SLP211 T00500011 51022 
METAR KMRH 180756Z AUTO 36007KT 10SM CLR 06/02 A3015 RMK AO2 SLP209 T00560022 
METAR KMRH 180656Z AUTO 01008KT 10SM CLR 07/04 A3012 RMK AO2 SLP198 T00670039 
METAR KMRH 180556Z AUTO 35009KT 10SM CLR 08/04 A3009 RMK AO2 SLP189 T00830044 10111 20083 53015 
METAR KMRH 180456Z AUTO 31009KT 7SM CLR 09/08 A3007 RMK AO2 SLP182 T00890078 401440089 
METAR KMRH 180356Z AUTO 31009KT 7SM CLR 09/08 A3006 RMK AO2 SLP180 T00940083 
METAR KMRH 180256Z AUTO 29008KT 8SM CLR 10/08 A3005 RMK AO2 SLP175 T01000083 53030 
METAR KMRH 180156Z AUTO 31010KT 8SM CLR 11/08 A3001 RMK AO2 SLP163 T01060083 
METAR KMRH 180056Z AUTO 30008KT 8SM CLR 11/09 A2998 RMK AO2 SLP153 T01110089 
METAR KMRH 172356Z AUTO 28008KT 8SM CLR 11/09 A2996 RMK AO2 SLP144 T01110094 10139 20111 53028 
METAR KMRH 172256Z AUTO 29008KT 8SM CLR 12/10 A2993 RMK AO2 SLP135 T01170100 
METAR KMRH 172156Z AUTO 30012KT 10SM CLR 12/10 A2990 RMK AO2 SLP124 T01220100 
SPECI KMRH 172119Z AUTO 29010KT 10SM SCT016 13/11 A2988 RMK AO2 
METAR KMRH 171956Z AUTO 29011KT 10SM OVC016 13/11 A2985 RMK AO2 SLP109 T01330106 
SPECI KMRH 171925Z AUTO 29011KT 10SM OVC014 13/11 A2986 RMK AO2 
SPECI KMRH 171907Z AUTO 28010KT 10SM BKN016 OVC055 13/11 A2984 RMK AO2 
METAR KMRH 171856Z AUTO 26011KT 10SM BKN014 OVC055 13/11 A2984 RMK AO2 SLP103 T01330106 
SPECI KMRH 171849Z AUTO 27008KT 10SM SCT014 BKN055 14/11 A2983 RMK AO2 
SPECI KMRH 171839Z AUTO 28009KT 10SM BKN014 BKN060 13/11 A2982 RMK AO2 
METAR KMRH 171756Z AUTO 29008KT 10SM BKN043 OVC065 13/11 A2983 RMK AO2 SLP102 60001 T01330106 10133 20106 58025 
METAR KMRH 171656Z AUTO 31012KT 10SM OVC037 12/11 A2985 RMK AO2 SLP110 T01220106 
SPECI KMRH 171634Z AUTO 31009KT 10SM FEW029 BKN039 OVC050 12/11 A2986 RMK AO2 
METAR KMRH 171456Z AUTO 29012KT 10SM OVC023 11/09 A2991 RMK AO2 RAE13 SLP127 P0000 60001 T01110094 58004 
METAR KMRH 171356Z AUTO 28009KT 9SM -RA OVC019 11/10 A2991 RMK AO2 SLP128 P0000 T01110100 
METAR KMRH 171256Z AUTO 28008KT 7SM -RA BKN021 OVC028 11/09 A2992 RMK AO2 SLP133 P0001 T01060089 
SPECI KMRH 171236Z AUTO 28009KT 8SM -RA FEW023 OVC028 11/09 A2994 RMK AO2 P0000 
METAR KMRH 171156Z AUTO 27010KT 10SM -RA FEW025 BKN036 OVC100 11/08 A2992 RMK AO2 SLP131 P0001 60001 70034 T01110083 10144 20111 53007 
METAR KMRH 171056Z AUTO 28007KT 10SM -RA SCT060 OVC100 12/09 A2991 RMK AO2 SLP129 P0000 T01170089 
METAR KMRH 170956Z AUTO 26007KT 10SM -RA BKN090 OVC110 13/06 A2988 RMK AO2 RAB55 SLP119 P0000 T01330061 
METAR KMRH 170856Z AUTO 27009KT 10SM OVC100 13/07 A2990 RMK AO2 SLP124 60000 T01330067 55003 
METAR KMRH 170756Z AUTO 26012KT 10SM BKN110 14/07 A2990 RMK AO2 RAB12E23 SLP123 P0000 T01390067